Time;durP1;ratioP1;P1;durP2;ratioP2;P2;SDS_P1;SDS_P2;PMS_P1;PMS_P2;Temp;Humidity;BMP_temperature;BMP_pressure;BME280_temperature;BME280_humidity;BME280_pressure;Samples;Min_cycle;Max_cycle;Signal;HPM_P1;HPM_P2
2023/10/13 00:00:40;;;;;;;5.68;3.00;;;;;;;;;;4996887;28;20034;-32
2023/10/13 00:03:14;;;;;;;6.68;4.10;;;;;;;;;;4979390;28;20015;-30
2023/10/13 00:05:41;;;;;;;5.90;3.55;;;;;;;;;;4980859;28;20038;-30
2023/10/13 00:08:09;;;;;;;5.70;3.22;;;;;;;;;;4996402;28;20026;-29
2023/10/13 00:10:35;;;;;;;6.03;3.38;;;;;;;;;;4996503;28;20369;-32
2023/10/13 00:13:15;;;;;;;4.47;3.25;;;;;;;;;;4996591;28;20034;-30
2023/10/13 00:15:58;;;;;;;5.70;3.43;;;;;;;;;;4996199;28;20031;-32
2023/10/13 00:18:34;;;;;;;4.50;3.70;;;;;;;;;;4996567;28;20324;-28
2023/10/13 00:21:12;;;;;;;4.55;3.28;;;;;;;;;;4996554;28;20306;-31
2023/10/13 00:23:39;;;;;;;5.15;3.72;;;;;;;;;;4996447;28;20022;-32
2023/10/13 00:26:09;;;;;;;4.10;2.92;;;;;;;;;;4996417;28;20062;-31
2023/10/13 00:28:43;;;;;;;4.83;2.80;;;;;;;;;;4996406;28;20034;-31
2023/10/13 00:31:12;;;;;;;7.75;3.72;;;;;;;;;;4996297;28;20333;-28
2023/10/13 00:33:44;;;;;;;3.80;2.90;;;;;;;;;;4995991;28;20026;-30
2023/10/13 00:36:18;;;;;;;5.20;3.75;;;;;;;;;;4978754;28;20019;-30
2023/10/13 00:38:48;;;;;;;4.13;3.38;;;;;;;;;;4996288;28;20368;-30
2023/10/13 00:41:16;;;;;;;6.97;4.07;;;;;;;;;;4995789;28;20080;-31
2023/10/13 00:44:04;;;;;;;3.45;2.72;;;;;;;;;;4995805;28;20029;-31
2023/10/13 00:46:34;;;;;;;4.57;3.10;;;;;;;;;;4995705;28;20018;-32
2023/10/13 00:49:01;;;;;;;4.97;2.85;;;;;;;;;;4995734;28;20058;-28
2023/10/13 00:51:40;;;;;;;5.70;3.25;;;;;;;;;;4996237;28;20022;-31
2023/10/13 00:54:13;;;;;;;8.73;3.60;;;;;;;;;;4995531;28;20068;-29
2023/10/13 00:56:48;;;;;;;6.63;2.95;;;;;;;;;;4996052;28;20401;-32
2023/10/13 00:59:15;;;;;;;2.80;2.60;;;;;;;;;;4995859;28;20023;-29
2023/10/13 01:01:44;;;;;;;4.30;2.78;;;;;;;;;;4995549;28;20327;-31
2023/10/13 01:04:14;;;;;;;4.75;2.83;;;;;;;;;;4995724;28;20093;-31
2023/10/13 01:06:41;;;;;;;7.30;3.93;;;;;;;;;;4995376;28;20037;-31
2023/10/13 01:09:16;;;;;;;4.85;2.70;;;;;;;;;;4995688;28;20081;-32
2023/10/13 01:11:48;;;;;;;10.10;5.28;;;;;;;;;;4995727;28;20072;-29
2023/10/13 01:14:18;;;;;;;6.95;3.65;;;;;;;;;;4995625;28;20365;-30
2023/10/13 01:16:44;;;;;;;4.43;3.08;;;;;;;;;;4995262;28;20137;-31
2023/10/13 01:19:12;;;;;;;4.25;3.53;;;;;;;;;;4995579;28;20465;-31
2023/10/13 01:21:42;;;;;;;3.55;3.22;;;;;;;;;;4995230;28;20053;-27
2023/10/13 01:24:08;;;;;;;4.10;2.88;;;;;;;;;;4995778;28;20033;-30
2023/10/13 01:26:39;;;;;;;4.88;3.25;;;;;;;;;;4995195;28;20449;-31
2023/10/13 01:29:13;;;;;;;3.45;3.15;;;;;;;;;;4995497;28;20038;-26
2023/10/13 01:31:46;;;;;;;3.85;3.38;;;;;;;;;;4995488;28;20042;-29
2023/10/13 01:34:22;;;;;;;4.55;3.47;;;;;;;;;;4995415;28;20165;-29
2023/10/13 01:36:53;;;;;;;7.40;2.83;;;;;;;;;;4978535;28;20453;-30
2023/10/13 01:39:26;;;;;;;4.85;3.00;;;;;;;;;;4999553;28;20449;-28
2023/10/13 01:41:55;;;;;;;6.75;3.28;;;;;;;;;;4999223;28;20355;-30
2023/10/13 01:44:32;;;;;;;3.50;3.20;;;;;;;;;;4981944;28;20034;-29
2023/10/13 01:47:06;;;;;;;3.97;3.03;;;;;;;;;;4999133;28;20026;-32
2023/10/13 01:49:42;;;;;;;5.60;3.20;;;;;;;;;;4999358;28;20084;-31
2023/10/13 01:52:12;;;;;;;3.97;2.78;;;;;;;;;;4981854;28;20033;-31
2023/10/13 01:54:40;;;;;;;3.28;3.00;;;;;;;;;;4998873;28;20084;-32
2023/10/13 01:57:13;;;;;;;5.15;3.47;;;;;;;;;;4998925;28;20357;-32
2023/10/13 01:59:43;;;;;;;4.25;3.58;;;;;;;;;;4999673;28;20046;-30
2023/10/13 02:02:12;;;;;;;3.22;2.92;;;;;;;;;;4999116;28;20353;-30
2023/10/13 02:04:48;;;;;;;4.35;3.03;;;;;;;;;;4999035;28;20037;-31
2023/10/13 02:07:17;;;;;;;3.45;3.15;;;;;;;;;;4998659;28;20030;-28
2023/10/13 02:09:44;;;;;;;2.60;2.40;;;;;;;;;;4998879;28;20073;-30
2023/10/13 02:12:10;;;;;;;3.85;3.20;;;;;;;;;;4981457;28;20401;-30
2023/10/13 02:14:38;;;;;;;3.47;3.17;;;;;;;;;;4998756;28;20034;-31
2023/10/13 02:17:13;;;;;;;3.20;2.90;;;;;;;;;;4998746;28;20027;-28
2023/10/13 02:19:46;;;;;;;5.30;3.00;;;;;;;;;;4998446;28;20451;-28
2023/10/13 02:22:24;;;;;;;3.45;2.97;;;;;;;;;;4998418;28;20054;-28
2023/10/13 02:24:52;;;;;;;5.63;3.50;;;;;;;;;;4981265;28;20022;-30
2023/10/13 02:27:22;;;;;;;3.85;2.83;;;;;;;;;;4998200;28;20041;-28
2023/10/13 02:29:50;;;;;;;4.05;3.65;;;;;;;;;;4998259;28;20027;-29
2023/10/13 02:32:19;;;;;;;6.15;2.72;;;;;;;;;;4981087;28;20044;-31
2023/10/13 02:34:46;;;;;;;3.40;3.10;;;;;;;;;;4998056;28;20038;-27
2023/10/13 02:37:13;;;;;;;3.25;2.95;;;;;;;;;;4997853;28;20158;-31
2023/10/13 02:39:42;;;;;;;3.53;3.22;;;;;;;;;;4998047;28;20034;-30
2023/10/13 02:42:15;;;;;;;8.25;3.17;;;;;;;;;;4998036;28;20026;-30
2023/10/13 02:44:45;;;;;;;3.38;3.08;;;;;;;;;;4998321;28;20412;-32
2023/10/13 02:47:15;;;;;;;2.55;2.35;;;;;;;;;;4997870;28;20105;-30
2023/10/13 02:49:46;;;;;;;3.80;3.10;;;;;;;;;;4996582;28;20469;-30
2023/10/13 02:52:12;;;;;;;;;;;;;;;;;;4981156;28;20026;-29
2023/10/13 02:54:50;;;;;;;3.83;3.20;;;;;;;;;;4997984;28;19929;-30
2023/10/13 02:57:17;;;;;;;4.75;3.03;;;;;;;;;;4980547;28;20019;-31
2023/10/13 02:59:46;;;;;;;4.40;3.60;;;;;;;;;;4997741;28;20465;-30
2023/10/13 03:02:29;;;;;;;4.30;2.88;;;;;;;;;;4997742;28;20503;-31
2023/10/13 03:04:59;;;;;;;3.53;2.92;;;;;;;;;;4997612;28;20034;-27
2023/10/13 03:07:29;;;;;;;2.80;2.60;;;;;;;;;;4997851;28;20053;-30
2023/10/13 03:09:57;;;;;;;5.15;2.97;;;;;;;;;;4997555;28;20073;-30
2023/10/13 03:12:42;;;;;;;6.93;3.33;;;;;;;;;;4997487;28;20026;-31
2023/10/13 03:17:44;;;;;;;4.57;4.18;;;;;;;;;;4997389;28;20077;-28
2023/10/13 03:20:13;;;;;;;3.53;2.90;;;;;;;;;;4997311;28;20118;-31
2023/10/13 03:22:39;;;;;;;3.55;2.92;;;;;;;;;;4997331;28;20361;-29
2023/10/13 03:25:08;;;;;;;3.22;2.88;;;;;;;;;;4997473;28;20057;-27
2023/10/13 03:28:00;;;;;;;2.90;2.65;;;;;;;;;;4997116;28;20030;-29
2023/10/13 03:30:38;;;;;;;3.85;2.70;;;;;;;;;;4996984;28;20369;-30
2023/10/13 03:33:25;;;;;;;2.67;2.47;;;;;;;;;;4997181;28;20023;-33
2023/10/13 03:35:59;;;;;;;4.28;2.97;;;;;;;;;;4996900;28;20030;-27
2023/10/13 03:38:27;;;;;;;3.13;2.65;;;;;;;;;;4997030;28;20462;-30
2023/10/13 03:41:19;;;;;;;2.67;2.47;;;;;;;;;;4979791;28;20022;-30
2023/10/13 03:43:51;;;;;;;4.30;2.72;;;;;;;;;;4996352;28;20066;-32
2023/10/13 03:46:21;;;;;;;3.25;2.92;;;;;;;;;;4997022;28;20077;-30
2023/10/13 03:48:56;;;;;;;4.50;3.17;;;;;;;;;;4997440;28;20358;-29
2023/10/13 03:51:30;;;;;;;4.07;3.17;;;;;;;;;;4997305;28;20026;-27
2023/10/13 03:53:56;;;;;;;3.33;3.08;;;;;;;;;;4996593;28;20136;-31
2023/10/13 03:56:38;;;;;;;3.20;2.90;;;;;;;;;;4996801;28;20022;-29
2023/10/13 04:04:14;;;;;;;4.15;3.53;;;;;;;;;;4996801;28;20030;-26
2023/10/13 04:17:23;;;;;;;3.55;2.60;;;;;;;;;;4996428;28;20093;-31
2023/10/13 04:25:35;;;;;;;3.72;2.58;;;;;;;;;;4996190;28;20042;-30
2023/10/13 04:41:36;;;;;;;5.15;3.53;;;;;;;;;;4996229;28;20026;-30
2023/10/13 04:44:47;;;;;;;3.22;2.70;;;;;;;;;;4979665;28;20121;-32
2023/10/13 06:29:40;;;;;;;5.05;3.10;;;;;;;;;;4983705;28;20037;-27
2023/10/13 06:32:12;;;;;;;5.07;3.05;;;;;;;;;;4998020;28;20349;-29
2023/10/13 06:34:44;;;;;;;4.65;2.72;;;;;;;;;;4997907;28;20041;-30
2023/10/13 06:37:26;;;;;;;4.30;2.92;;;;;;;;;;4997391;28;20046;-31
2023/10/13 06:39:59;;;;;;;5.45;3.45;;;;;;;;;;4998028;28;20030;-29
2023/10/13 06:42:28;;;;;;;2.97;2.67;;;;;;;;;;4998627;28;20026;-32
2023/10/13 06:44:58;;;;;;;3.08;2.88;;;;;;;;;;4997944;28;20660;-32
2023/10/13 06:47:24;;;;;;;6.13;2.72;;;;;;;;;;4997524;28;20027;-28
2023/10/13 06:49:51;;;;;;;7.03;2.80;;;;;;;;;;4997738;28;20315;-30
2023/10/13 06:52:18;;;;;;;4.88;2.95;;;;;;;;;;4998754;28;20026;-31
2023/10/13 06:54:44;;;;;;;5.10;2.63;;;;;;;;;;4998045;28;20350;-31
2023/10/13 06:57:20;;;;;;;8.25;3.20;;;;;;;;;;4997746;28;20445;-28
2023/10/13 06:59:51;;;;;;;6.80;3.85;;;;;;;;;;4998090;28;20027;-29
2023/10/13 07:02:23;;;;;;;;;;;;;;;;;;4998268;28;20034;-30
2023/10/13 07:05:11;;;;;;;4.80;3.03;;;;;;;;;;4997747;28;19906;-31
2023/10/13 07:07:38;;;;;;;7.97;3.15;;;;;;;;;;4997469;28;20026;-32
2023/10/13 07:10:08;;;;;;;7.80;3.08;;;;;;;;;;4997257;28;20584;-32
2023/10/13 07:12:34;;;;;;;6.05;3.13;;;;;;;;;;4997609;28;20030;-28
2023/10/13 07:15:10;;;;;;;5.45;3.30;;;;;;;;;;4997730;28;20034;-31
2023/10/13 07:17:39;;;;;;;8.60;3.33;;;;;;;;;;4997480;28;20027;-29
2023/10/13 07:20:14;;;;;;;3.60;3.30;;;;;;;;;;4997260;28;20476;-31
2023/10/13 07:22:54;;;;;;;5.72;3.22;;;;;;;;;;4996893;28;20038;-30
2023/10/13 07:25:25;;;;;;;6.18;2.95;;;;;;;;;;4996932;28;20065;-29
2023/10/13 07:27:53;;;;;;;;;;;;;;;;;;4997559;28;20034;-29
2023/10/13 07:30:26;;;;;;;6.15;3.20;;;;;;;;;;4996833;28;19909;-30
2023/10/13 07:32:53;;;;;;;7.97;2.90;;;;;;;;;;4997092;28;20077;-28
2023/10/13 07:35:22;;;;;;;7.30;3.97;;;;;;;;;;4978804;28;20394;-29
2023/10/13 07:37:52;;;;;;;9.50;3.83;;;;;;;;;;4996938;28;20042;-31
2023/10/13 07:43:10;;;;;;;8.68;3.22;;;;;;;;;;4997437;28;20035;-27
2023/10/13 07:45:40;;;;;;;8.32;3.78;;;;;;;;;;4996682;28;20027;-32
2023/10/13 07:48:16;;;;;;;4.93;3.63;;;;;;;;;;4997774;28;20339;-31
2023/10/13 07:50:45;;;;;;;3.50;2.75;;;;;;;;;;4997207;28;20022;-28
2023/10/13 07:53:23;;;;;;;4.10;3.13;;;;;;;;;;4997850;28;20365;-33
2023/10/13 07:55:56;;;;;;;5.90;3.08;;;;;;;;;;4996716;28;20092;-31
2023/10/13 07:58:26;;;;;;;7.18;4.30;;;;;;;;;;4996982;28;20030;-30
2023/10/13 08:08:39;;;;;;;6.05;3.38;;;;;;;;;;4996978;28;20120;-31
2023/10/13 08:11:24;;;;;;;5.43;2.58;;;;;;;;;;4996163;28;20365;-29
2023/10/13 08:13:59;;;;;;;6.03;3.33;;;;;;;;;;4996149;28;20100;-28
2023/10/13 08:16:45;;;;;;;4.38;3.10;;;;;;;;;;4995932;28;20054;-29
2023/10/13 08:19:13;;;;;;;5.65;3.30;;;;;;;;;;4996052;28;20065;-28
2023/10/13 08:21:39;;;;;;;5.30;2.90;;;;;;;;;;4996049;28;20023;-30
2023/10/13 08:24:07;;;;;;;8.40;4.38;;;;;;;;;;4996118;28;20026;-29
2023/10/13 08:34:59;;;;;;;4.57;2.63;;;;;;;;;;4995981;28;20045;-30
2023/10/13 08:42:52;;;;;;;4.35;3.22;;;;;;;;;;4995750;28;20104;-29
2023/10/13 08:45:20;;;;;;;28.83;5.05;;;;;;;;;;4995514;28;20370;-28
2023/10/13 08:47:54;;;;;;;14.18;5.05;;;;;;;;;;4978454;28;20033;-30
2023/10/13 08:53:26;;;;;;;8.15;3.58;;;;;;;;;;4995801;28;20069;-30
2023/10/13 09:01:34;;;;;;;4.93;2.88;;;;;;;;;;4995465;28;20023;-28
2023/10/13 09:04:34;;;;;;;5.55;3.28;;;;;;;;;;4995960;28;20029;-27
2023/10/13 09:09:59;;;;;;;7.45;3.58;;;;;;;;;;4995369;28;20023;-30
2023/10/13 09:12:35;;;;;;;3.17;2.50;;;;;;;;;;4995759;28;20033;-28
2023/10/13 09:23:07;;;;;;;6.18;3.38;;;;;;;;;;4995115;28;20022;-28
2023/10/13 09:25:36;;;;;;;7.03;3.30;;;;;;;;;;4994768;28;20113;-28
2023/10/13 09:28:10;;;;;;;6.30;3.53;;;;;;;;;;4995047;28;20030;-32
2023/10/13 09:30:43;;;;;;;13.27;3.20;;;;;;;;;;4995252;28;20097;-29
2023/10/13 09:33:09;;;;;;;7.13;3.50;;;;;;;;;;4995265;28;20433;-30
2023/10/13 09:35:37;;;;;;;16.88;4.20;;;;;;;;;;4978333;28;20120;-31
2023/10/13 09:38:03;;;;;;;7.68;3.95;;;;;;;;;;4995035;28;20038;-30
2023/10/13 09:40:46;;;;;;;7.78;3.95;;;;;;;;;;4994838;28;20109;-29
2023/10/13 09:43:14;;;;;;;5.35;3.65;;;;;;;;;;4995177;28;20033;-30
2023/10/13 09:45:56;;;;;;;7.13;3.65;;;;;;;;;;4994769;28;20089;-31
2023/10/13 09:48:26;;;;;;;6.38;3.72;;;;;;;;;;4995222;28;20050;-30
2023/10/13 09:50:53;;;;;;;4.55;3.78;;;;;;;;;;4995111;28;20093;-31
2023/10/13 09:53:23;;;;;;;6.97;3.58;;;;;;;;;;4994822;28;20053;-30
2023/10/13 09:55:55;;;;;;;7.30;4.03;;;;;;;;;;4994997;28;20105;-30
2023/10/13 09:58:28;;;;;;;7.70;4.60;;;;;;;;;;4996629;28;20023;-29
2023/10/13 10:01:07;;;;;;;4.90;3.53;;;;;;;;;;4998643;28;20033;-29
2023/10/13 10:06:27;;;;;;;12.20;4.50;;;;;;;;;;4998364;28;20473;-28
2023/10/13 10:08:50;;;;;;;11.05;4.07;;;;;;;;;;4998050;28;20046;-30
2023/10/13 10:11:35;;;;;;;15.60;4.30;;;;;;;;;;4998272;28;20033;-31
2023/10/13 10:14:03;;;;;;;7.40;3.83;;;;;;;;;;4998642;28;20032;-31
2023/10/13 10:16:41;;;;;;;6.85;3.70;;;;;;;;;;4998754;28;20101;-31
2023/10/13 10:19:08;;;;;;;8.50;4.00;;;;;;;;;;4998714;28;20022;-30
2023/10/13 10:21:37;;;;;;;10.90;4.82;;;;;;;;;;4998499;28;20461;-28
2023/10/13 10:24:33;;;;;;;10.27;5.13;;;;;;;;;;4998547;28;20106;-30
2023/10/13 10:26:59;;;;;;;8.05;4.75;;;;;;;;;;4998752;28;20338;-31
2023/10/13 10:29:25;;;;;;;8.68;4.40;;;;;;;;;;4998385;28;20026;-30
2023/10/13 10:31:52;;;;;;;13.43;4.88;;;;;;;;;;4998626;28;20097;-30
2023/10/13 10:34:18;;;;;;;9.70;4.90;;;;;;;;;;4998266;28;20062;-29
2023/10/13 10:36:48;;;;;;;9.32;4.22;;;;;;;;;;4998066;28;20504;-31
2023/10/13 10:39:15;;;;;;;10.10;4.70;;;;;;;;;;4998047;28;20116;-29
2023/10/13 10:44:16;;;;;;;20.50;5.65;;;;;;;;;;4998284;28;20030;-29
2023/10/13 10:46:51;;;;;;;11.18;4.82;;;;;;;;;;4998300;28;20362;-29
2023/10/13 10:49:27;;;;;;;14.43;4.88;;;;;;;;;;4998806;28;20050;-31
2023/10/13 10:51:57;;;;;;;5.85;4.03;;;;;;;;;;4997679;28;20026;-27
2023/10/13 10:54:30;;;;;;;11.00;4.57;;;;;;;;;;4998523;28;20026;-31
2023/10/13 10:56:59;;;;;;;18.08;5.15;;;;;;;;;;4997967;28;20092;-30
2023/10/13 10:59:29;;;;;;;9.07;5.28;;;;;;;;;;4997707;28;20030;-29
2023/10/13 11:01:58;;;;;;;10.07;4.78;;;;;;;;;;4980538;28;20030;-30
2023/10/13 11:04:33;;;;;;;7.63;4.60;;;;;;;;;;4980446;28;20034;-28
2023/10/13 11:06:59;;;;;;;7.88;4.80;;;;;;;;;;4997844;28;20382;-29
2023/10/13 11:09:36;;;;;;;9.57;4.35;;;;;;;;;;4996519;28;20053;-28
2023/10/13 11:12:14;;;;;;;13.73;5.75;;;;;;;;;;4997503;28;20191;-30
2023/10/13 11:14:40;;;;;;;9.38;4.78;;;;;;;;;;4997673;28;20365;-28
2023/10/13 11:17:21;;;;;;;7.30;4.18;;;;;;;;;;4997438;28;20097;-31
2023/10/13 11:19:48;;;;;;;7.80;4.68;;;;;;;;;;4997677;28;20019;-29
2023/10/13 11:25:29;;;;;;;9.13;4.55;;;;;;;;;;4937777;29;20122;-31
2023/10/13 11:27:55;;;;;;;10.95;5.10;;;;;;;;;;4989565;28;20496;-27
2023/10/13 11:30:25;;;;;;;5.00;4.03;;;;;;;;;;4997356;28;20129;-30
2023/10/13 11:33:05;;;;;;;5.95;4.45;;;;;;;;;;4997522;28;20041;-30
2023/10/13 11:43:46;;;;;;;19.77;5.90;;;;;;;;;;4996935;28;20105;-31
2023/10/13 11:48:38;;;;;;;11.77;5.07;;;;;;;;;;4996634;28;20332;-29
2023/10/13 11:51:08;;;;;;;10.75;4.78;;;;;;;;;;4996907;28;20030;-31
2023/10/13 11:53:35;;;;;;;8.13;4.53;;;;;;;;;;4997211;28;20105;-29
2023/10/13 11:56:11;;;;;;;10.13;5.78;;;;;;;;;;4996258;28;20023;-29
2023/10/13 11:58:40;;;;;;;12.65;5.38;;;;;;;;;;4997045;28;20441;-32
2023/10/13 12:11:48;;;;;;;11.85;5.47;;;;;;;;;;4966030;28;20045;-28
2023/10/13 12:17:10;;;;;;;19.10;6.15;;;;;;;;;;4996025;28;20044;-30
2023/10/13 12:19:38;;;;;;;15.52;5.47;;;;;;;;;;4978556;28;20033;-30
2023/10/13 12:22:09;;;;;;;15.65;5.30;;;;;;;;;;4995348;28;20038;-30
2023/10/13 12:27:02;;;;;;;15.00;5.35;;;;;;;;;;4995784;28;20480;-28
2023/10/13 12:29:28;;;;;;;6.72;4.65;;;;;;;;;;4995767;28;20325;-31
2023/10/13 12:32:14;;;;;;;18.10;4.90;;;;;;;;;;4995992;28;20084;-30
2023/10/13 12:53:55;;;;;;;19.92;5.82;;;;;;;;;;4995510;28;20069;-27
2023/10/13 12:56:28;;;;;;;13.13;5.03;;;;;;;;;;4995302;28;20041;-28
2023/10/13 12:58:54;;;;;;;10.15;6.20;;;;;;;;;;4995756;28;20366;-29
2023/10/13 13:01:32;;;;;;;6.93;5.28;;;;;;;;;;4995410;28;20034;-27
2023/10/13 13:03:59;;;;;;;16.35;5.68;;;;;;;;;;4978263;28;20231;-27
2023/10/13 13:06:26;;;;;;;19.58;5.78;;;;;;;;;;4995454;28;20031;-29
2023/10/13 13:08:52;;;;;;;12.48;5.65;;;;;;;;;;4995339;28;20132;-30
2023/10/13 13:11:19;;;;;;;13.63;6.22;;;;;;;;;;4995251;28;20105;-31
2023/10/13 13:13:48;;;;;;;10.60;4.78;;;;;;;;;;4995477;28;20424;-30
2023/10/13 13:16:18;;;;;;;19.40;7.10;;;;;;;;;;4995196;28;20281;-32
2023/10/13 13:18:45;;;;;;;6.15;5.35;;;;;;;;;;4995623;28;20101;-31
2023/10/13 13:21:27;;;;;;;14.13;5.88;;;;;;;;;;4995357;28;20034;-30
2023/10/13 13:23:54;;;;;;;10.45;6.32;;;;;;;;;;4995475;28;20031;-31
2023/10/13 13:26:21;;;;;;;9.77;5.57;;;;;;;;;;4995571;28;20365;-27
2023/10/13 13:28:51;;;;;;;9.13;6.03;;;;;;;;;;4995659;28;20041;-32
2023/10/13 13:31:29;;;;;;;11.15;4.78;;;;;;;;;;4995366;28;20041;-30
2023/10/13 13:33:55;;;;;;;9.00;4.55;;;;;;;;;;4995200;28;20101;-30
2023/10/13 13:36:22;;;;;;;9.95;5.68;;;;;;;;;;4994858;28;20047;-32
2023/10/13 13:38:50;;;;;;;11.88;5.97;;;;;;;;;;4995339;28;20057;-31
2023/10/13 13:41:17;;;;;;;11.82;5.65;;;;;;;;;;4995409;28;20466;-30
2023/10/13 13:46:19;;;;;;;14.07;5.85;;;;;;;;;;4995039;28;20037;-30
2023/10/13 13:48:48;;;;;;;10.40;5.22;;;;;;;;;;4994989;28;20030;-28
2023/10/13 13:51:14;;;;;;;14.77;5.57;;;;;;;;;;4995220;28;20397;-29
2023/10/13 13:53:48;;;;;;;17.95;6.70;;;;;;;;;;4995256;28;20030;-30
2023/10/13 13:56:18;;;;;;;12.73;6.20;;;;;;;;;;4995269;28;20109;-33
2023/10/13 13:58:48;;;;;;;11.53;6.17;;;;;;;;;;4995390;28;20050;-32
2023/10/13 14:01:15;;;;;;;9.35;5.32;;;;;;;;;;4995251;28;20019;-27
2023/10/13 14:03:47;;;;;;;17.48;5.95;;;;;;;;;;4995253;28;20076;-30
2023/10/13 14:06:18;;;;;;;12.50;5.00;;;;;;;;;;4995120;28;20165;-29
2023/10/13 14:08:56;;;;;;;15.50;5.65;;;;;;;;;;4994984;28;20042;-29
2023/10/13 14:14:12;;;;;;;11.90;5.18;;;;;;;;;;4994786;28;20030;-31
2023/10/13 14:16:44;;;;;;;12.23;5.60;;;;;;;;;;4994917;28;20041;-33
2023/10/13 14:19:11;;;;;;;17.58;5.88;;;;;;;;;;4995418;28;20074;-27
2023/10/13 14:21:37;;;;;;;15.45;5.53;;;;;;;;;;4994994;28;20023;-33
2023/10/13 14:24:12;;;;;;;17.58;6.38;;;;;;;;;;4994751;28;20023;-28
2023/10/13 14:26:38;;;;;;;13.13;6.25;;;;;;;;;;4994607;28;20037;-31
2023/10/13 14:29:08;;;;;;;8.23;5.97;;;;;;;;;;4994704;28;20078;-31
2023/10/13 14:31:37;;;;;;;11.20;5.70;;;;;;;;;;4994538;28;20031;-27
2023/10/13 14:34:04;;;;;;;12.90;5.78;;;;;;;;;;4994616;28;20095;-29
2023/10/13 14:36:34;;;;;;;9.23;5.18;;;;;;;;;;4973898;28;20129;-27
2023/10/13 14:39:01;;;;;;;11.40;6.83;;;;;;;;;;4975656;28;20034;-31
2023/10/13 14:41:27;;;;;;;21.67;7.75;;;;;;;;;;4975257;28;20030;-30
2023/10/13 14:43:56;;;;;;;10.50;6.43;;;;;;;;;;4975693;28;20019;-29
2023/10/13 14:46:23;;;;;;;8.65;5.80;;;;;;;;;;4979015;28;20425;-31
2023/10/13 14:48:49;;;;;;;13.45;5.97;;;;;;;;;;4978695;28;20037;-30
2023/10/13 14:51:18;;;;;;;15.40;5.65;;;;;;;;;;4978601;28;20066;-29
2023/10/13 14:53:45;;;;;;;6.35;4.82;;;;;;;;;;4978465;28;20026;-31
2023/10/13 14:56:15;;;;;;;11.10;6.28;;;;;;;;;;4978175;28;20034;-30
2023/10/13 14:58:42;;;;;;;12.17;6.10;;;;;;;;;;4978565;28;20030;-31
2023/10/13 15:01:15;;;;;;;14.68;7.18;;;;;;;;;;4978205;28;20031;-27
2023/10/13 15:03:47;;;;;;;18.00;5.70;;;;;;;;;;4978199;28;20027;-31
2023/10/13 15:06:20;;;;;;;10.68;5.45;;;;;;;;;;4978190;28;20030;-28
2023/10/13 15:08:48;;;;;;;9.70;4.95;;;;;;;;;;4978155;28;20089;-32
2023/10/13 15:11:14;;;;;;;15.05;5.53;;;;;;;;;;4978433;28;20039;-29
2023/10/13 15:13:43;;;;;;;9.93;5.18;;;;;;;;;;4978158;28;20034;-30
2023/10/13 15:16:14;;;;;;;16.80;6.53;;;;;;;;;;4977977;28;20023;-32
2023/10/13 15:18:40;;;;;;;10.52;5.93;;;;;;;;;;4978398;28;20402;-30
2023/10/13 15:21:08;;;;;;;10.38;5.43;;;;;;;;;;4978020;28;20101;-30
2023/10/13 15:23:42;;;;;;;16.42;5.93;;;;;;;;;;4978186;28;20385;-30
2023/10/13 15:26:14;;;;;;;14.05;6.30;;;;;;;;;;4977758;28;20031;-32
2023/10/13 15:28:53;;;;;;;11.88;6.20;;;;;;;;;;4976940;28;20105;-31
2023/10/13 15:31:22;;;;;;;22.40;5.82;;;;;;;;;;4978116;28;20041;-31
2023/10/13 15:33:54;;;;;;;11.90;5.63;;;;;;;;;;4978277;28;20027;-31
2023/10/13 15:36:23;;;;;;;9.63;5.60;;;;;;;;;;4980780;28;20481;-29
2023/10/13 15:38:53;;;;;;;9.40;6.03;;;;;;;;;;4997096;28;20101;-28
2023/10/13 15:41:26;;;;;;;9.90;5.93;;;;;;;;;;4997213;28;20081;-30
2023/10/13 15:43:54;;;;;;;8.98;5.68;;;;;;;;;;4997509;28;20027;-30
2023/10/13 15:46:21;;;;;;;11.48;5.65;;;;;;;;;;4979993;28;20049;-28
2023/10/13 15:48:51;;;;;;;9.00;5.90;;;;;;;;;;4979678;28;20042;-29
2023/10/13 15:51:18;;;;;;;10.93;5.78;;;;;;;;;;4996832;28;20052;-29
2023/10/13 15:53:47;;;;;;;6.90;5.05;;;;;;;;;;4979610;28;20097;-31
2023/10/13 15:56:14;;;;;;;8.32;5.53;;;;;;;;;;4996190;28;20034;-31
2023/10/13 15:58:40;;;;;;;9.65;5.80;;;;;;;;;;4996606;28;20018;-30
2023/10/13 16:01:07;;;;;;;11.65;5.65;;;;;;;;;;4996413;28;20022;-31
2023/10/13 16:03:34;;;;;;;11.85;5.70;;;;;;;;;;4996501;28;20019;-27
2023/10/13 16:06:09;;;;;;;9.40;5.00;;;;;;;;;;4996353;28;20046;-31
2023/10/13 16:08:42;;;;;;;9.27;5.07;;;;;;;;;;4996691;28;20381;-31
2023/10/13 16:11:13;;;;;;;12.07;5.03;;;;;;;;;;4979176;28;20367;-29
2023/10/13 16:13:39;;;;;;;15.00;5.97;;;;;;;;;;4996831;28;20041;-27
2023/10/13 16:16:06;;;;;;;10.57;5.85;;;;;;;;;;4996363;28;20165;-30
2023/10/13 16:18:32;;;;;;;11.45;5.47;;;;;;;;;;4996759;28;20030;-28
2023/10/13 16:21:03;;;;;;;10.57;6.53;;;;;;;;;;4996130;28;20031;-31
2023/10/13 16:23:30;;;;;;;11.15;5.60;;;;;;;;;;4996283;28;20026;-27
2023/10/13 16:26:01;;;;;;;12.40;5.72;;;;;;;;;;4978892;28;20129;-30
2023/10/13 16:28:27;;;;;;;10.55;5.72;;;;;;;;;;4979993;28;20050;-32
2023/10/13 16:30:53;;;;;;;11.15;5.35;;;;;;;;;;4996023;28;20038;-27
2023/10/13 16:33:20;;;;;;;8.20;5.45;;;;;;;;;;4996048;28;20022;-30
2023/10/13 16:35:47;;;;;;;9.88;5.45;;;;;;;;;;4996230;28;20038;-28
2023/10/13 16:38:14;;;;;;;7.85;5.68;;;;;;;;;;4995857;28;20482;-30
2023/10/13 16:40:40;;;;;;;12.80;6.10;;;;;;;;;;4996023;28;20338;-27
2023/10/13 16:43:07;;;;;;;5.88;5.30;;;;;;;;;;4995742;28;20098;-31
2023/10/13 16:45:45;;;;;;;8.35;5.93;;;;;;;;;;4995942;28;20096;-31
2023/10/13 16:48:16;;;;;;;8.05;4.93;;;;;;;;;;4995962;28;20050;-31
2023/10/13 16:50:43;;;;;;;9.40;6.22;;;;;;;;;;4995742;28;20030;-31
2023/10/13 16:53:10;;;;;;;12.40;5.65;;;;;;;;;;4995520;28;20062;-30
2023/10/13 16:55:37;;;;;;;20.33;7.13;;;;;;;;;;4995465;28;20033;-30
2023/10/13 16:58:04;;;;;;;11.43;6.35;;;;;;;;;;4995953;28;20106;-36
2023/10/13 17:00:31;;;;;;;10.50;4.93;;;;;;;;;;4995383;28;20030;-32
2023/10/13 17:02:57;;;;;;;9.38;5.00;;;;;;;;;;4978196;28;20291;-30
2023/10/13 17:05:27;;;;;;;6.97;4.90;;;;;;;;;;4995360;28;20026;-33
2023/10/13 17:07:54;;;;;;;13.80;5.88;;;;;;;;;;4994658;28;20026;-29
2023/10/13 17:10:20;;;;;;;7.93;4.97;;;;;;;;;;4995622;28;20038;-30
2023/10/13 17:12:46;;;;;;;6.63;5.30;;;;;;;;;;4995311;28;20050;-33
2023/10/13 17:15:21;;;;;;;8.93;5.28;;;;;;;;;;4995209;28;20030;-27
2023/10/13 17:17:49;;;;;;;18.15;6.32;;;;;;;;;;4995190;28;20027;-29
2023/10/13 17:20:18;;;;;;;9.75;5.90;;;;;;;;;;4995125;28;20092;-28
2023/10/13 17:22:46;;;;;;;13.63;6.03;;;;;;;;;;4995565;28;20022;-30
2023/10/13 17:25:12;;;;;;;11.38;5.82;;;;;;;;;;4995320;28;20088;-28
2023/10/13 17:27:42;;;;;;;12.38;5.53;;;;;;;;;;4995098;28;20038;-27
2023/10/13 17:30:09;;;;;;;18.58;8.13;;;;;;;;;;4995191;28;20122;-30
2023/10/13 17:32:36;;;;;;;10.85;6.32;;;;;;;;;;4995322;28;20026;-30
2023/10/13 17:35:03;;;;;;;10.95;5.68;;;;;;;;;;4995312;28;20033;-30
2023/10/13 17:37:30;;;;;;;10.27;5.35;;;;;;;;;;4994872;28;20053;-29
2023/10/13 17:40:00;;;;;;;14.32;6.38;;;;;;;;;;4995377;28;20103;-29
2023/10/13 17:42:26;;;;;;;14.95;6.32;;;;;;;;;;4995606;28;20078;-32
2023/10/13 17:44:52;;;;;;;8.75;4.97;;;;;;;;;;4995017;28;20109;-30
2023/10/13 17:47:20;;;;;;;19.00;6.47;;;;;;;;;;4995160;28;20030;-29
2023/10/13 17:49:46;;;;;;;20.20;6.32;;;;;;;;;;4994924;28;20035;-31
2023/10/13 17:52:13;;;;;;;12.73;6.07;;;;;;;;;;4978044;28;20026;-28
2023/10/13 17:54:41;;;;;;;13.65;5.50;;;;;;;;;;4994813;28;20465;-27
2023/10/13 17:57:07;;;;;;;8.27;5.70;;;;;;;;;;4995092;28;20026;-32
2023/10/13 17:59:35;;;;;;;20.00;6.32;;;;;;;;;;4994932;28;20030;-32
2023/10/13 18:02:03;;;;;;;14.48;6.85;;;;;;;;;;4995093;28;20065;-29
2023/10/13 18:04:29;;;;;;;11.95;5.57;;;;;;;;;;4994741;28;20031;-30
2023/10/13 18:06:56;;;;;;;14.15;6.32;;;;;;;;;;4994960;28;20021;-29
2023/10/13 18:09:23;;;;;;;9.57;5.55;;;;;;;;;;4994820;28;20026;-30
2023/10/13 18:11:50;;;;;;;9.73;5.90;;;;;;;;;;4994997;28;20098;-30
2023/10/13 18:14:17;;;;;;;7.75;5.90;;;;;;;;;;4994669;28;20034;-27
2023/10/13 18:16:49;;;;;;;8.98;5.57;;;;;;;;;;4994800;28;20061;-29
2023/10/13 18:19:15;;;;;;;9.10;5.30;;;;;;;;;;4996052;28;20104;-32
2023/10/13 18:21:41;;;;;;;8.45;5.65;;;;;;;;;;4998746;28;20030;-30
2023/10/13 18:24:08;;;;;;;10.07;6.07;;;;;;;;;;4998676;28;20354;-31
2023/10/13 18:26:34;;;;;;;9.05;5.65;;;;;;;;;;4998310;28;20461;-32
2023/10/13 18:29:01;;;;;;;14.18;5.65;;;;;;;;;;4998861;28;20362;-33
2023/10/13 18:31:31;;;;;;;7.80;5.60;;;;;;;;;;4998413;28;20058;-31
2023/10/13 18:34:00;;;;;;;11.32;7.35;;;;;;;;;;4998472;28;20408;-30
2023/10/13 18:36:30;;;;;;;10.00;5.18;;;;;;;;;;4997886;28;20050;-27
2023/10/13 18:38:57;;;;;;;8.40;5.20;;;;;;;;;;4999085;28;20341;-30
2023/10/13 18:41:23;;;;;;;12.60;5.90;;;;;;;;;;4998136;28;20022;-31
2023/10/13 18:43:51;;;;;;;9.43;5.35;;;;;;;;;;4998343;28;20042;-29
2023/10/13 18:46:18;;;;;;;10.30;5.75;;;;;;;;;;4998217;28;20105;-31
2023/10/13 18:48:45;;;;;;;12.75;5.80;;;;;;;;;;4998040;28;20105;-31
2023/10/13 18:51:12;;;;;;;6.72;5.32;;;;;;;;;;4998183;28;20101;-30
2023/10/13 18:53:40;;;;;;;10.75;5.85;;;;;;;;;;4998255;28;20034;-32
2023/10/13 18:56:09;;;;;;;8.00;5.82;;;;;;;;;;4998087;28;20346;-30
2023/10/13 18:58:36;;;;;;;10.10;5.32;;;;;;;;;;4998043;28;20416;-28
2023/10/13 19:01:12;;;;;;;9.70;5.40;;;;;;;;;;4998003;28;20034;-30